sensor_id;sensor_type;location;lat;lon;timestamp;P1;durP1;ratioP1;P2;durP2;ratioP2
9461;SDS011;4769;42.660;23.262;2023-06-14T00:00:42;6.57;;;5.93;;
9461;SDS011;4769;42.660;23.262;2023-06-14T00:03:08;6.78;;;6.10;;
9461;SDS011;4769;42.660;23.262;2023-06-14T00:05:34;6.22;;;5.68;;
9461;SDS011;4769;42.660;23.262;2023-06-14T00:08:03;6.50;;;5.97;;
9461;SDS011;4769;42.660;23.262;2023-06-14T00:10:29;8.38;;;7.60;;
9461;SDS011;4769;42.660;23.262;2023-06-14T00:12:54;8.00;;;7.07;;
9461;SDS011;4769;42.660;23.262;2023-06-14T00:15:20;8.40;;;7.22;;
9461;SDS011;4769;42.660;23.262;2023-06-14T00:17:46;7.50;;;6.90;;
9461;SDS011;4769;42.660;23.262;2023-06-14T00:20:11;7.30;;;6.60;;
9461;SDS011;4769;42.660;23.262;2023-06-14T00:22:37;7.43;;;6.80;;
9461;SDS011;4769;42.660;23.262;2023-06-14T00:25:06;8.82;;;7.50;;
9461;SDS011;4769;42.660;23.262;2023-06-14T00:27:32;9.70;;;7.13;;
9461;SDS011;4769;42.660;23.262;2023-06-14T00:29:58;7.68;;;6.95;;
9461;SDS011;4769;42.660;23.262;2023-06-14T00:32:23;9.05;;;7.55;;
9461;SDS011;4769;42.660;23.262;2023-06-14T00:34:49;8.32;;;7.63;;
9461;SDS011;4769;42.660;23.262;2023-06-14T00:37:15;9.07;;;8.18;;
9461;SDS011;4769;42.660;23.262;2023-06-14T00:39:40;9.30;;;7.55;;
9461;SDS011;4769;42.660;23.262;2023-06-14T00:42:09;8.68;;;7.78;;
9461;SDS011;4769;42.660;23.262;2023-06-14T00:44:34;7.70;;;6.90;;
9461;SDS011;4769;42.660;23.262;2023-06-14T00:47:00;7.90;;;7.20;;
9461;SDS011;4769;42.660;23.262;2023-06-14T00:49:26;9.13;;;7.15;;
9461;SDS011;4769;42.660;23.262;2023-06-14T00:51:52;7.65;;;6.95;;
9461;SDS011;4769;42.660;23.262;2023-06-14T00:54:18;7.05;;;6.35;;
9461;SDS011;4769;42.660;23.262;2023-06-14T00:56:43;7.32;;;6.72;;
9461;SDS011;4769;42.660;23.262;2023-06-14T00:59:12;7.30;;;6.60;;
9461;SDS011;4769;42.660;23.262;2023-06-14T01:01:38;7.65;;;5.88;;
9461;SDS011;4769;42.660;23.262;2023-06-14T01:04:04;6.57;;;5.88;;
9461;SDS011;4769;42.660;23.262;2023-06-14T01:06:30;7.40;;;6.38;;
9461;SDS011;4769;42.660;23.262;2023-06-14T01:09:06;6.95;;;5.90;;
9461;SDS011;4769;42.660;23.262;2023-06-14T01:11:41;8.85;;;6.38;;
9461;SDS011;4769;42.660;23.262;2023-06-14T01:14:18;8.18;;;6.00;;
9461;SDS011;4769;42.660;23.262;2023-06-14T01:16:45;7.43;;;6.07;;
9461;SDS011;4769;42.660;23.262;2023-06-14T01:19:12;10.45;;;6.30;;
9461;SDS011;4769;42.660;23.262;2023-06-14T01:21:41;7.60;;;6.20;;
9461;SDS011;4769;42.660;23.262;2023-06-14T01:24:09;7.60;;;6.32;;
9461;SDS011;4769;42.660;23.262;2023-06-14T01:26:35;7.97;;;6.03;;
9461;SDS011;4769;42.660;23.262;2023-06-14T01:29:01;8.52;;;6.45;;
9461;SDS011;4769;42.660;23.262;2023-06-14T01:31:27;7.43;;;6.63;;
9461;SDS011;4769;42.660;23.262;2023-06-14T01:33:54;6.80;;;6.20;;
9461;SDS011;4769;42.660;23.262;2023-06-14T01:36:20;7.45;;;5.85;;
9461;SDS011;4769;42.660;23.262;2023-06-14T01:38:52;9.52;;;6.80;;
9461;SDS011;4769;42.660;23.262;2023-06-14T01:41:21;11.32;;;6.18;;
9461;SDS011;4769;42.660;23.262;2023-06-14T01:43:48;6.03;;;5.55;;
9461;SDS011;4769;42.660;23.262;2023-06-14T01:46:15;6.47;;;5.25;;
9461;SDS011;4769;42.660;23.262;2023-06-14T01:48:42;8.45;;;6.10;;
9461;SDS011;4769;42.660;23.262;2023-06-14T01:51:08;7.18;;;6.00;;
9461;SDS011;4769;42.660;23.262;2023-06-14T01:53:34;11.90;;;5.97;;
9461;SDS011;4769;42.660;23.262;2023-06-14T01:55:59;6.50;;;5.90;;
9461;SDS011;4769;42.660;23.262;2023-06-14T01:58:28;6.90;;;6.30;;
9461;SDS011;4769;42.660;23.262;2023-06-14T02:00:54;7.18;;;6.47;;
9461;SDS011;4769;42.660;23.262;2023-06-14T02:03:20;7.05;;;6.35;;
9461;SDS011;4769;42.660;23.262;2023-06-14T02:05:46;6.70;;;6.00;;
9461;SDS011;4769;42.660;23.262;2023-06-14T02:08:12;7.18;;;6.10;;
9461;SDS011;4769;42.660;23.262;2023-06-14T02:10:38;7.05;;;6.30;;
9461;SDS011;4769;42.660;23.262;2023-06-14T02:13:03;9.77;;;6.32;;
9461;SDS011;4769;42.660;23.262;2023-06-14T02:15:32;6.57;;;5.70;;
9461;SDS011;4769;42.660;23.262;2023-06-14T02:17:57;6.03;;;5.47;;
9461;SDS011;4769;42.660;23.262;2023-06-14T02:20:23;6.78;;;6.18;;
9461;SDS011;4769;42.660;23.262;2023-06-14T02:22:49;6.22;;;5.72;;
9461;SDS011;4769;42.660;23.262;2023-06-14T02:25:15;6.05;;;5.53;;
9461;SDS011;4769;42.660;23.262;2023-06-14T02:27:40;7.40;;;5.55;;
9461;SDS011;4769;42.660;23.262;2023-06-14T02:30:07;6.47;;;5.43;;
9461;SDS011;4769;42.660;23.262;2023-06-14T02:32:36;5.30;;;4.90;;
9461;SDS011;4769;42.660;23.262;2023-06-14T02:35:02;6.20;;;5.60;;
9461;SDS011;4769;42.660;23.262;2023-06-14T02:37:28;5.68;;;4.75;;
9461;SDS011;4769;42.660;23.262;2023-06-14T02:39:53;7.22;;;5.15;;
9461;SDS011;4769;42.660;23.262;2023-06-14T02:42:20;5.50;;;4.97;;
9461;SDS011;4769;42.660;23.262;2023-06-14T02:44:46;5.60;;;5.18;;
9461;SDS011;4769;42.660;23.262;2023-06-14T02:47:12;7.25;;;4.47;;
9461;SDS011;4769;42.660;23.262;2023-06-14T02:49:40;4.78;;;4.38;;
9461;SDS011;4769;42.660;23.262;2023-06-14T02:52:06;4.93;;;4.57;;
9461;SDS011;4769;42.660;23.262;2023-06-14T02:54:32;5.43;;;5.03;;
9461;SDS011;4769;42.660;23.262;2023-06-14T02:56:57;6.47;;;4.60;;
9461;SDS011;4769;42.660;23.262;2023-06-14T02:59:23;5.45;;;5.00;;
9461;SDS011;4769;42.660;23.262;2023-06-14T03:01:49;4.90;;;4.50;;
9461;SDS011;4769;42.660;23.262;2023-06-14T03:04:15;5.07;;;4.57;;
9461;SDS011;4769;42.660;23.262;2023-06-14T03:06:43;5.50;;;5.00;;
9461;SDS011;4769;42.660;23.262;2023-06-14T03:09:09;5.13;;;4.63;;
9461;SDS011;4769;42.660;23.262;2023-06-14T03:11:34;5.43;;;4.90;;
9461;SDS011;4769;42.660;23.262;2023-06-14T03:14:00;5.65;;;4.40;;
9461;SDS011;4769;42.660;23.262;2023-06-14T03:16:26;4.53;;;4.18;;
9461;SDS011;4769;42.660;23.262;2023-06-14T03:18:52;5.80;;;4.30;;
9461;SDS011;4769;42.660;23.262;2023-06-14T03:21:18;4.45;;;4.05;;
9461;SDS011;4769;42.660;23.262;2023-06-14T03:23:47;7.30;;;4.78;;
9461;SDS011;4769;42.660;23.262;2023-06-14T03:26:13;5.20;;;4.75;;
9461;SDS011;4769;42.660;23.262;2023-06-14T03:28:39;4.93;;;4.53;;
9461;SDS011;4769;42.660;23.262;2023-06-14T03:31:05;5.32;;;4.93;;
9461;SDS011;4769;42.660;23.262;2023-06-14T03:33:31;4.97;;;4.57;;
9461;SDS011;4769;42.660;23.262;2023-06-14T03:35:57;5.32;;;4.85;;
9461;SDS011;4769;42.660;23.262;2023-06-14T03:38:23;5.32;;;4.88;;
9461;SDS011;4769;42.660;23.262;2023-06-14T03:40:52;5.03;;;4.63;;
9461;SDS011;4769;42.660;23.262;2023-06-14T03:43:18;6.65;;;4.82;;
9461;SDS011;4769;42.660;23.262;2023-06-14T03:45:44;6.65;;;4.43;;
9461;SDS011;4769;42.660;23.262;2023-06-14T03:48:09;7.90;;;4.47;;
9461;SDS011;4769;42.660;23.262;2023-06-14T03:50:35;5.38;;;4.85;;
9461;SDS011;4769;42.660;23.262;2023-06-14T03:53:01;4.55;;;4.15;;
9461;SDS011;4769;42.660;23.262;2023-06-14T03:55:27;6.22;;;4.93;;
9461;SDS011;4769;42.660;23.262;2023-06-14T03:57:55;8.32;;;4.72;;
9461;SDS011;4769;42.660;23.262;2023-06-14T04:00:21;6.03;;;4.60;;
9461;SDS011;4769;42.660;23.262;2023-06-14T04:02:47;7.18;;;4.75;;
9461;SDS011;4769;42.660;23.262;2023-06-14T04:05:13;4.78;;;4.28;;
9461;SDS011;4769;42.660;23.262;2023-06-14T04:07:39;5.65;;;4.97;;
9461;SDS011;4769;42.660;23.262;2023-06-14T04:10:05;6.57;;;4.88;;
9461;SDS011;4769;42.660;23.262;2023-06-14T04:12:32;6.20;;;5.40;;
9461;SDS011;4769;42.660;23.262;2023-06-14T04:15:00;10.73;;;5.38;;
9461;SDS011;4769;42.660;23.262;2023-06-14T04:17:26;7.95;;;6.05;;
9461;SDS011;4769;42.660;23.262;2023-06-14T04:19:52;5.55;;;4.95;;
9461;SDS011;4769;42.660;23.262;2023-06-14T04:22:17;7.32;;;5.22;;
9461;SDS011;4769;42.660;23.262;2023-06-14T04:24:43;4.97;;;4.47;;
9461;SDS011;4769;42.660;23.262;2023-06-14T04:27:09;6.28;;;4.78;;
9461;SDS011;4769;42.660;23.262;2023-06-14T04:29:35;6.28;;;5.63;;
9461;SDS011;4769;42.660;23.262;2023-06-14T04:32:04;7.68;;;6.80;;
9461;SDS011;4769;42.660;23.262;2023-06-14T04:34:30;7.07;;;6.40;;
9461;SDS011;4769;42.660;23.262;2023-06-14T04:36:56;8.55;;;6.78;;
9461;SDS011;4769;42.660;23.262;2023-06-14T04:39:22;7.75;;;6.93;;
9461;SDS011;4769;42.660;23.262;2023-06-14T04:41:48;10.57;;;6.65;;
9461;SDS011;4769;42.660;23.262;2023-06-14T04:44:14;7.38;;;6.40;;
9461;SDS011;4769;42.660;23.262;2023-06-14T04:46:40;7.75;;;5.90;;
9461;SDS011;4769;42.660;23.262;2023-06-14T04:49:08;11.48;;;6.97;;
9461;SDS011;4769;42.660;23.262;2023-06-14T04:51:34;9.10;;;6.53;;
9461;SDS011;4769;42.660;23.262;2023-06-14T04:54:00;7.50;;;6.78;;
9461;SDS011;4769;42.660;23.262;2023-06-14T04:56:25;9.93;;;6.88;;
9461;SDS011;4769;42.660;23.262;2023-06-14T04:58:51;9.73;;;7.88;;
9461;SDS011;4769;42.660;23.262;2023-06-14T05:01:17;8.15;;;7.38;;
9461;SDS011;4769;42.660;23.262;2023-06-14T05:03:43;11.95;;;7.65;;
9461;SDS011;4769;42.660;23.262;2023-06-14T05:06:11;8.77;;;7.93;;
9461;SDS011;4769;42.660;23.262;2023-06-14T05:08:37;8.93;;;8.07;;
9461;SDS011;4769;42.660;23.262;2023-06-14T05:11:03;8.68;;;7.85;;
9461;SDS011;4769;42.660;23.262;2023-06-14T05:13:29;9.52;;;8.57;;
9461;SDS011;4769;42.660;23.262;2023-06-14T05:15:55;8.50;;;7.68;;
9461;SDS011;4769;42.660;23.262;2023-06-14T05:18:20;10.18;;;8.15;;
9461;SDS011;4769;42.660;23.262;2023-06-14T05:20:46;12.88;;;8.23;;
9461;SDS011;4769;42.660;23.262;2023-06-14T05:23:14;7.45;;;6.85;;
9461;SDS011;4769;42.660;23.262;2023-06-14T05:25:41;8.77;;;7.90;;
9461;SDS011;4769;42.660;23.262;2023-06-14T05:28:07;8.52;;;7.72;;
9461;SDS011;4769;42.660;23.262;2023-06-14T05:30:33;10.80;;;8.18;;
9461;SDS011;4769;42.660;23.262;2023-06-14T05:32:59;8.93;;;7.53;;
9461;SDS011;4769;42.660;23.262;2023-06-14T05:35:24;10.30;;;8.68;;
9461;SDS011;4769;42.660;23.262;2023-06-14T05:37:50;12.55;;;8.98;;
9461;SDS011;4769;42.660;23.262;2023-06-14T05:40:19;14.60;;;13.27;;
9461;SDS011;4769;42.660;23.262;2023-06-14T05:42:45;9.50;;;8.48;;
9461;SDS011;4769;42.660;23.262;2023-06-14T05:45:11;10.43;;;9.00;;
9461;SDS011;4769;42.660;23.262;2023-06-14T05:47:37;11.45;;;10.30;;
9461;SDS011;4769;42.660;23.262;2023-06-14T05:50:03;10.35;;;8.95;;
9461;SDS011;4769;42.660;23.262;2023-06-14T05:52:29;12.30;;;9.10;;
9461;SDS011;4769;42.660;23.262;2023-06-14T05:54:55;10.48;;;9.30;;
9461;SDS011;4769;42.660;23.262;2023-06-14T05:57:23;12.18;;;10.07;;
9461;SDS011;4769;42.660;23.262;2023-06-14T05:59:49;11.65;;;10.65;;
9461;SDS011;4769;42.660;23.262;2023-06-14T06:02:15;12.25;;;11.02;;
9461;SDS011;4769;42.660;23.262;2023-06-14T06:04:41;12.27;;;11.07;;
9461;SDS011;4769;42.660;23.262;2023-06-14T06:07:06;10.35;;;9.25;;
9461;SDS011;4769;42.660;23.262;2023-06-14T06:09:32;11.07;;;9.95;;
9461;SDS011;4769;42.660;23.262;2023-06-14T06:11:58;11.00;;;10.00;;
9461;SDS011;4769;42.660;23.262;2023-06-14T06:14:27;14.77;;;10.23;;
9461;SDS011;4769;42.660;23.262;2023-06-14T06:16:53;11.25;;;9.93;;
9461;SDS011;4769;42.660;23.262;2023-06-14T06:19:19;10.30;;;9.40;;
9461;SDS011;4769;42.660;23.262;2023-06-14T06:21:44;10.77;;;9.77;;
9461;SDS011;4769;42.660;23.262;2023-06-14T06:24:10;11.20;;;10.05;;
9461;SDS011;4769;42.660;23.262;2023-06-14T06:26:36;9.93;;;9.02;;
9461;SDS011;4769;42.660;23.262;2023-06-14T06:29:01;9.38;;;8.38;;
9461;SDS011;4769;42.660;23.262;2023-06-14T06:31:30;9.23;;;8.00;;
9461;SDS011;4769;42.660;23.262;2023-06-14T06:33:55;9.07;;;7.68;;
9461;SDS011;4769;42.660;23.262;2023-06-14T06:36:21;12.00;;;8.30;;
9461;SDS011;4769;42.660;23.262;2023-06-14T06:38:47;8.68;;;7.75;;
9461;SDS011;4769;42.660;23.262;2023-06-14T06:41:13;8.98;;;8.18;;
9461;SDS011;4769;42.660;23.262;2023-06-14T06:43:39;10.65;;;9.43;;
9461;SDS011;4769;42.660;23.262;2023-06-14T06:46:05;11.88;;;8.57;;
9461;SDS011;4769;42.660;23.262;2023-06-14T06:48:33;8.50;;;7.70;;
9461;SDS011;4769;42.660;23.262;2023-06-14T06:50:59;12.93;;;7.97;;
9461;SDS011;4769;42.660;23.262;2023-06-14T06:53:25;9.90;;;7.85;;
9461;SDS011;4769;42.660;23.262;2023-06-14T06:55:50;8.85;;;7.90;;
9461;SDS011;4769;42.660;23.262;2023-06-14T06:58:16;10.63;;;8.05;;
9461;SDS011;4769;42.660;23.262;2023-06-14T07:00:42;12.57;;;11.13;;
9461;SDS011;4769;42.660;23.262;2023-06-14T07:03:07;14.35;;;10.77;;
9461;SDS011;4769;42.660;23.262;2023-06-14T07:05:36;12.50;;;10.38;;
9461;SDS011;4769;42.660;23.262;2023-06-14T07:08:02;17.45;;;9.02;;
9461;SDS011;4769;42.660;23.262;2023-06-14T07:10:28;10.38;;;9.38;;
9461;SDS011;4769;42.660;23.262;2023-06-14T07:12:53;17.27;;;10.57;;
9461;SDS011;4769;42.660;23.262;2023-06-14T07:15:19;11.73;;;9.73;;
9461;SDS011;4769;42.660;23.262;2023-06-14T07:17:45;13.70;;;11.20;;
9461;SDS011;4769;42.660;23.262;2023-06-14T07:20:11;12.98;;;11.68;;
9461;SDS011;4769;42.660;23.262;2023-06-14T07:22:40;19.17;;;11.82;;
9461;SDS011;4769;42.660;23.262;2023-06-14T07:25:07;17.70;;;10.65;;
9461;SDS011;4769;42.660;23.262;2023-06-14T07:27:33;14.93;;;10.00;;
9461;SDS011;4769;42.660;23.262;2023-06-14T07:29:59;16.10;;;9.20;;
9461;SDS011;4769;42.660;23.262;2023-06-14T07:32:24;11.30;;;8.90;;
9461;SDS011;4769;42.660;23.262;2023-06-14T07:34:50;9.80;;;8.90;;
9461;SDS011;4769;42.660;23.262;2023-06-14T07:37:16;19.60;;;11.05;;
9461;SDS011;4769;42.660;23.262;2023-06-14T07:39:44;11.40;;;10.30;;
9461;SDS011;4769;42.660;23.262;2023-06-14T07:42:10;11.30;;;10.20;;
9461;SDS011;4769;42.660;23.262;2023-06-14T07:44:36;8.93;;;8.02;;
9461;SDS011;4769;42.660;23.262;2023-06-14T07:47:02;13.05;;;10.07;;
9461;SDS011;4769;42.660;23.262;2023-06-14T07:49:28;14.05;;;10.88;;
9461;SDS011;4769;42.660;23.262;2023-06-14T07:51:53;12.38;;;10.88;;
9461;SDS011;4769;42.660;23.262;2023-06-14T07:54:19;17.20;;;9.48;;
9461;SDS011;4769;42.660;23.262;2023-06-14T07:56:48;11.20;;;7.93;;
9461;SDS011;4769;42.660;23.262;2023-06-14T07:59:13;12.05;;;8.20;;
9461;SDS011;4769;42.660;23.262;2023-06-14T08:01:39;9.57;;;8.43;;
9461;SDS011;4769;42.660;23.262;2023-06-14T08:04:05;12.32;;;8.48;;
9461;SDS011;4769;42.660;23.262;2023-06-14T08:06:31;11.20;;;9.40;;
9461;SDS011;4769;42.660;23.262;2023-06-14T08:08:56;11.00;;;9.00;;
9461;SDS011;4769;42.660;23.262;2023-06-14T08:11:22;10.90;;;8.75;;
9461;SDS011;4769;42.660;23.262;2023-06-14T08:13:50;11.20;;;9.35;;
9461;SDS011;4769;42.660;23.262;2023-06-14T08:16:16;14.10;;;9.27;;
9461;SDS011;4769;42.660;23.262;2023-06-14T08:18:42;18.02;;;8.90;;
9461;SDS011;4769;42.660;23.262;2023-06-14T08:21:07;16.83;;;9.95;;
9461;SDS011;4769;42.660;23.262;2023-06-14T08:23:33;18.90;;;11.35;;
9461;SDS011;4769;42.660;23.262;2023-06-14T08:25:59;22.02;;;11.65;;
9461;SDS011;4769;42.660;23.262;2023-06-14T08:28:25;11.82;;;9.75;;
9461;SDS011;4769;42.660;23.262;2023-06-14T08:30:53;18.65;;;11.77;;
9461;SDS011;4769;42.660;23.262;2023-06-14T08:33:19;16.85;;;9.38;;
9461;SDS011;4769;42.660;23.262;2023-06-14T08:35:44;10.77;;;8.57;;
9461;SDS011;4769;42.660;23.262;2023-06-14T08:38:10;12.98;;;9.65;;
9461;SDS011;4769;42.660;23.262;2023-06-14T08:40:37;13.48;;;9.05;;
9461;SDS011;4769;42.660;23.262;2023-06-14T08:43:03;8.93;;;8.02;;
9461;SDS011;4769;42.660;23.262;2023-06-14T08:45:28;11.77;;;9.63;;
9461;SDS011;4769;42.660;23.262;2023-06-14T08:47:57;9.80;;;8.80;;
9461;SDS011;4769;42.660;23.262;2023-06-14T08:50:24;12.88;;;10.45;;
9461;SDS011;4769;42.660;23.262;2023-06-14T08:52:51;12.57;;;8.95;;
9461;SDS011;4769;42.660;23.262;2023-06-14T08:55:19;12.93;;;10.63;;
9461;SDS011;4769;42.660;23.262;2023-06-14T08:57:46;12.07;;;9.95;;
9461;SDS011;4769;42.660;23.262;2023-06-14T09:00:13;8.55;;;7.57;;
9461;SDS011;4769;42.660;23.262;2023-06-14T09:02:39;15.73;;;8.80;;
9461;SDS011;4769;42.660;23.262;2023-06-14T09:05:08;13.05;;;8.90;;
9461;SDS011;4769;42.660;23.262;2023-06-14T09:07:34;10.02;;;8.73;;
9461;SDS011;4769;42.660;23.262;2023-06-14T09:10:09;15.35;;;9.32;;
9461;SDS011;4769;42.660;23.262;2023-06-14T09:12:36;10.60;;;9.63;;
9461;SDS011;4769;42.660;23.262;2023-06-14T09:15:02;9.10;;;8.27;;
9461;SDS011;4769;42.660;23.262;2023-06-14T09:17:28;12.90;;;10.05;;
9461;SDS011;4769;42.660;23.262;2023-06-14T09:19:55;10.23;;;9.23;;
9461;SDS011;4769;42.660;23.262;2023-06-14T09:22:23;16.65;;;9.40;;
9461;SDS011;4769;42.660;23.262;2023-06-14T09:24:49;10.85;;;9.80;;
9461;SDS011;4769;42.660;23.262;2023-06-14T09:27:15;14.25;;;10.32;;
9461;SDS011;4769;42.660;23.262;2023-06-14T09:29:41;10.15;;;9.07;;
9461;SDS011;4769;42.660;23.262;2023-06-14T09:32:07;10.57;;;9.52;;
9461;SDS011;4769;42.660;23.262;2023-06-14T09:34:33;12.15;;;8.90;;
9461;SDS011;4769;42.660;23.262;2023-06-14T09:37:00;11.52;;;9.23;;
9461;SDS011;4769;42.660;23.262;2023-06-14T09:39:28;12.52;;;10.13;;
9461;SDS011;4769;42.660;23.262;2023-06-14T09:41:54;13.07;;;9.70;;
9461;SDS011;4769;42.660;23.262;2023-06-14T09:44:19;11.65;;;9.45;;
9461;SDS011;4769;42.660;23.262;2023-06-14T09:46:46;15.45;;;9.48;;
9461;SDS011;4769;42.660;23.262;2023-06-14T09:49:13;14.25;;;11.98;;
9461;SDS011;4769;42.660;23.262;2023-06-14T09:51:42;14.30;;;11.13;;
9461;SDS011;4769;42.660;23.262;2023-06-14T09:54:11;15.60;;;11.57;;
9461;SDS011;4769;42.660;23.262;2023-06-14T09:56:44;11.13;;;9.88;;
9461;SDS011;4769;42.660;23.262;2023-06-14T09:59:10;11.32;;;10.10;;
9461;SDS011;4769;42.660;23.262;2023-06-14T10:01:40;12.05;;;10.18;;
9461;SDS011;4769;42.660;23.262;2023-06-14T10:04:07;11.75;;;10.57;;
9461;SDS011;4769;42.660;23.262;2023-06-14T10:06:36;14.40;;;9.70;;
9461;SDS011;4769;42.660;23.262;2023-06-14T10:09:02;12.98;;;9.15;;
9461;SDS011;4769;42.660;23.262;2023-06-14T10:11:29;14.55;;;9.48;;
9461;SDS011;4769;42.660;23.262;2023-06-14T10:13:58;11.13;;;9.98;;
9461;SDS011;4769;42.660;23.262;2023-06-14T10:16:25;10.85;;;9.75;;
9461;SDS011;4769;42.660;23.262;2023-06-14T10:18:59;10.85;;;9.90;;
9461;SDS011;4769;42.660;23.262;2023-06-14T10:21:32;13.27;;;10.00;;
9461;SDS011;4769;42.660;23.262;2023-06-14T10:24:05;12.20;;;10.45;;
9461;SDS011;4769;42.660;23.262;2023-06-14T10:26:33;11.40;;;10.45;;
9461;SDS011;4769;42.660;23.262;2023-06-14T10:29:07;13.32;;;11.38;;
9461;SDS011;4769;42.660;23.262;2023-06-14T10:31:40;11.50;;;10.48;;
9461;SDS011;4769;42.660;23.262;2023-06-14T10:34:06;14.52;;;10.82;;
9461;SDS011;4769;42.660;23.262;2023-06-14T10:36:32;13.25;;;10.68;;
9461;SDS011;4769;42.660;23.262;2023-06-14T10:38:58;11.57;;;10.57;;
9461;SDS011;4769;42.660;23.262;2023-06-14T10:41:26;12.60;;;10.80;;
9461;SDS011;4769;42.660;23.262;2023-06-14T10:43:53;11.32;;;10.10;;
9461;SDS011;4769;42.660;23.262;2023-06-14T10:46:58;13.55;;;11.20;;
9461;SDS011;4769;42.660;23.262;2023-06-14T10:49:36;12.27;;;11.05;;
9461;SDS011;4769;42.660;23.262;2023-06-14T10:52:03;11.30;;;10.20;;
9461;SDS011;4769;42.660;23.262;2023-06-14T10:54:29;13.13;;;11.65;;
9461;SDS011;4769;42.660;23.262;2023-06-14T10:56:55;13.25;;;11.18;;
9461;SDS011;4769;42.660;23.262;2023-06-14T10:59:23;16.17;;;11.35;;
9461;SDS011;4769;42.660;23.262;2023-06-14T11:01:51;13.40;;;11.80;;
9461;SDS011;4769;42.660;23.262;2023-06-14T11:04:23;12.95;;;11.60;;
9461;SDS011;4769;42.660;23.262;2023-06-14T11:07:02;12.02;;;10.85;;
9461;SDS011;4769;42.660;23.262;2023-06-14T11:09:49;12.80;;;11.32;;
9461;SDS011;4769;42.660;23.262;2023-06-14T11:12:25;15.40;;;10.98;;
9461;SDS011;4769;42.660;23.262;2023-06-14T11:14:55;12.60;;;10.98;;
9461;SDS011;4769;42.660;23.262;2023-06-14T11:17:21;12.15;;;10.98;;
9461;SDS011;4769;42.660;23.262;2023-06-14T11:19:47;11.60;;;10.38;;
9461;SDS011;4769;42.660;23.262;2023-06-14T11:22:13;10.27;;;9.32;;
9461;SDS011;4769;42.660;23.262;2023-06-14T11:24:39;12.13;;;9.65;;
9461;SDS011;4769;42.660;23.262;2023-06-14T11:27:05;11.45;;;9.52;;
9461;SDS011;4769;42.660;23.262;2023-06-14T11:29:31;11.93;;;10.10;;
9461;SDS011;4769;42.660;23.262;2023-06-14T11:31:59;11.43;;;10.38;;
9461;SDS011;4769;42.660;23.262;2023-06-14T11:34:25;14.40;;;10.82;;
9461;SDS011;4769;42.660;23.262;2023-06-14T11:36:51;15.60;;;10.88;;
9461;SDS011;4769;42.660;23.262;2023-06-14T11:39:17;11.98;;;9.52;;
9461;SDS011;4769;42.660;23.262;2023-06-14T11:41:43;11.38;;;10.40;;
9461;SDS011;4769;42.660;23.262;2023-06-14T11:44:10;11.05;;;9.95;;
9461;SDS011;4769;42.660;23.262;2023-06-14T11:46:36;12.45;;;10.57;;
9461;SDS011;4769;42.660;23.262;2023-06-14T11:49:04;10.20;;;9.23;;
9461;SDS011;4769;42.660;23.262;2023-06-14T11:51:32;14.77;;;10.27;;
9461;SDS011;4769;42.660;23.262;2023-06-14T11:53:59;14.32;;;10.05;;
9461;SDS011;4769;42.660;23.262;2023-06-14T11:56:25;10.77;;;9.55;;
9461;SDS011;4769;42.660;23.262;2023-06-14T11:58:51;11.55;;;9.45;;
9461;SDS011;4769;42.660;23.262;2023-06-14T12:01:18;14.38;;;10.57;;
9461;SDS011;4769;42.660;23.262;2023-06-14T12:03:47;10.25;;;9.32;;
9461;SDS011;4769;42.660;23.262;2023-06-14T12:06:16;10.50;;;8.85;;
9461;SDS011;4769;42.660;23.262;2023-06-14T12:08:50;8.80;;;7.95;;
9461;SDS011;4769;42.660;23.262;2023-06-14T12:11:16;8.95;;;7.97;;
9461;SDS011;4769;42.660;23.262;2023-06-14T12:13:42;8.77;;;8.00;;
9461;SDS011;4769;42.660;23.262;2023-06-14T12:16:08;11.18;;;8.18;;
9461;SDS011;4769;42.660;23.262;2023-06-14T12:18:34;9.23;;;7.72;;
9461;SDS011;4769;42.660;23.262;2023-06-14T12:21:01;7.45;;;6.85;;
9461;SDS011;4769;42.660;23.262;2023-06-14T12:23:41;7.97;;;7.28;;
9461;SDS011;4769;42.660;23.262;2023-06-14T12:26:08;7.30;;;6.68;;
9461;SDS011;4769;42.660;23.262;2023-06-14T12:28:33;8.02;;;7.30;;
9461;SDS011;4769;42.660;23.262;2023-06-14T12:30:59;7.55;;;6.75;;
9461;SDS011;4769;42.660;23.262;2023-06-14T12:33:25;7.45;;;6.75;;
9461;SDS011;4769;42.660;23.262;2023-06-14T12:35:53;8.40;;;6.85;;
9461;SDS011;4769;42.660;23.262;2023-06-14T12:38:20;6.55;;;5.90;;
9461;SDS011;4769;42.660;23.262;2023-06-14T12:40:49;7.28;;;6.68;;
9461;SDS011;4769;42.660;23.262;2023-06-14T12:43:15;8.55;;;7.15;;
9461;SDS011;4769;42.660;23.262;2023-06-14T12:45:41;7.78;;;7.00;;
9461;SDS011;4769;42.660;23.262;2023-06-14T12:48:07;7.68;;;6.97;;
9461;SDS011;4769;42.660;23.262;2023-06-14T12:50:32;7.97;;;7.20;;
9461;SDS011;4769;42.660;23.262;2023-06-14T12:52:58;6.97;;;6.45;;
9461;SDS011;4769;42.660;23.262;2023-06-14T12:55:24;10.27;;;7.13;;
9461;SDS011;4769;42.660;23.262;2023-06-14T12:57:52;7.63;;;6.35;;
9461;SDS011;4769;42.660;23.262;2023-06-14T13:00:18;9.55;;;7.40;;
9461;SDS011;4769;42.660;23.262;2023-06-14T13:02:45;7.20;;;6.60;;
9461;SDS011;4769;42.660;23.262;2023-06-14T13:05:10;8.68;;;6.13;;
9461;SDS011;4769;42.660;23.262;2023-06-14T13:07:36;6.35;;;5.75;;
9461;SDS011;4769;42.660;23.262;2023-06-14T13:10:02;7.40;;;6.40;;
9461;SDS011;4769;42.660;23.262;2023-06-14T13:12:28;10.38;;;7.32;;
9461;SDS011;4769;42.660;23.262;2023-06-14T13:14:56;8.68;;;7.22;;
9461;SDS011;4769;42.660;23.262;2023-06-14T13:17:22;8.63;;;7.05;;
9461;SDS011;4769;42.660;23.262;2023-06-14T13:19:48;7.05;;;6.45;;
9461;SDS011;4769;42.660;23.262;2023-06-14T13:22:14;8.05;;;7.05;;
9461;SDS011;4769;42.660;23.262;2023-06-14T13:24:39;7.78;;;6.03;;
9461;SDS011;4769;42.660;23.262;2023-06-14T13:27:05;8.05;;;6.43;;
9461;SDS011;4769;42.660;23.262;2023-06-14T13:29:31;6.63;;;6.00;;
9461;SDS011;4769;42.660;23.262;2023-06-14T13:32:00;8.05;;;6.53;;
9461;SDS011;4769;42.660;23.262;2023-06-14T13:34:25;7.55;;;6.53;;
9461;SDS011;4769;42.660;23.262;2023-06-14T13:36:51;8.55;;;6.70;;
9461;SDS011;4769;42.660;23.262;2023-06-14T13:39:17;7.82;;;7.13;;
9461;SDS011;4769;42.660;23.262;2023-06-14T13:41:43;7.78;;;7.07;;
9461;SDS011;4769;42.660;23.262;2023-06-14T13:44:10;8.10;;;7.30;;
9461;SDS011;4769;42.660;23.262;2023-06-14T13:46:36;7.78;;;7.07;;
9461;SDS011;4769;42.660;23.262;2023-06-14T13:49:05;9.68;;;7.20;;
9461;SDS011;4769;42.660;23.262;2023-06-14T13:51:31;7.10;;;6.60;;
9461;SDS011;4769;42.660;23.262;2023-06-14T13:53:59;8.00;;;7.20;;
9461;SDS011;4769;42.660;23.262;2023-06-14T13:56:26;7.47;;;6.75;;
9461;SDS011;4769;42.660;23.262;2023-06-14T13:58:52;6.93;;;6.30;;
9461;SDS011;4769;42.660;23.262;2023-06-14T14:01:18;6.72;;;5.80;;
9461;SDS011;4769;42.660;23.262;2023-06-14T14:03:44;7.40;;;6.70;;
9461;SDS011;4769;42.660;23.262;2023-06-14T14:06:12;7.18;;;6.57;;
9461;SDS011;4769;42.660;23.262;2023-06-14T14:08:38;7.60;;;6.80;;
9461;SDS011;4769;42.660;23.262;2023-06-14T14:11:04;7.40;;;6.72;;
9461;SDS011;4769;42.660;23.262;2023-06-14T14:13:30;10.27;;;7.85;;
9461;SDS011;4769;42.660;23.262;2023-06-14T14:15:56;7.60;;;6.97;;
9461;SDS011;4769;42.660;23.262;2023-06-14T14:18:22;7.82;;;6.90;;
9461;SDS011;4769;42.660;23.262;2023-06-14T14:20:47;6.82;;;6.22;;
9461;SDS011;4769;42.660;23.262;2023-06-14T14:23:16;7.72;;;7.00;;
9461;SDS011;4769;42.660;23.262;2023-06-14T14:25:42;7.20;;;6.50;;
9461;SDS011;4769;42.660;23.262;2023-06-14T14:28:07;7.43;;;6.75;;
9461;SDS011;4769;42.660;23.262;2023-06-14T14:30:33;7.85;;;6.22;;
9461;SDS011;4769;42.660;23.262;2023-06-14T14:32:59;8.25;;;6.82;;
9461;SDS011;4769;42.660;23.262;2023-06-14T14:35:25;7.45;;;6.75;;
9461;SDS011;4769;42.660;23.262;2023-06-14T14:37:50;7.80;;;6.90;;
9461;SDS011;4769;42.660;23.262;2023-06-14T14:40:19;7.53;;;6.80;;
9461;SDS011;4769;42.660;23.262;2023-06-14T14:42:45;8.13;;;7.10;;
9461;SDS011;4769;42.660;23.262;2023-06-14T14:45:10;7.68;;;6.82;;
9461;SDS011;4769;42.660;23.262;2023-06-14T14:47:36;7.72;;;6.93;;
9461;SDS011;4769;42.660;23.262;2023-06-14T14:50:02;7.38;;;6.68;;